sensor_id;sensor_type;location;lat;lon;timestamp;temperature;humidity
46754;DHT22;32500;50.620;3.400;2024-02-23T00:01:55;16.10;69.90
46754;DHT22;32500;50.620;3.400;2024-02-23T00:04:20;16.10;69.80
46754;DHT22;32500;50.620;3.400;2024-02-23T00:06:46;16.10;69.80
46754;DHT22;32500;50.620;3.400;2024-02-23T00:09:12;16.10;69.80
46754;DHT22;32500;50.620;3.400;2024-02-23T00:11:41;16.10;69.80
46754;DHT22;32500;50.620;3.400;2024-02-23T00:14:10;16.10;69.80
46754;DHT22;32500;50.620;3.400;2024-02-23T00:16:40;16.00;69.80
46754;DHT22;32500;50.620;3.400;2024-02-23T00:19:08;16.00;69.40
46754;DHT22;32500;50.620;3.400;2024-02-23T00:21:37;16.00;69.90
46754;DHT22;32500;50.620;3.400;2024-02-23T00:24:04;16.00;69.90
46754;DHT22;32500;50.620;3.400;2024-02-23T00:26:30;16.00;69.80
46754;DHT22;32500;50.620;3.400;2024-02-23T00:28:56;16.00;69.70
46754;DHT22;32500;50.620;3.400;2024-02-23T00:31:22;15.90;69.60
46754;DHT22;32500;50.620;3.400;2024-02-23T00:33:47;15.90;69.90
46754;DHT22;32500;50.620;3.400;2024-02-23T00:36:13;15.90;69.90
46754;DHT22;32500;50.620;3.400;2024-02-23T00:38:39;15.90;70.60
46754;DHT22;32500;50.620;3.400;2024-02-23T00:41:05;15.80;70.00
46754;DHT22;32500;50.620;3.400;2024-02-23T00:43:40;15.80;69.90
46754;DHT22;32500;50.620;3.400;2024-02-23T00:46:09;15.80;70.20
46754;DHT22;32500;50.620;3.400;2024-02-23T00:48:35;15.70;69.90
46754;DHT22;32500;50.620;3.400;2024-02-23T00:51:02;15.70;70.10
46754;DHT22;32500;50.620;3.400;2024-02-23T00:53:28;15.80;70.00
46754;DHT22;32500;50.620;3.400;2024-02-23T00:55:54;15.70;70.10
46754;DHT22;32500;50.620;3.400;2024-02-23T00:58:20;15.70;70.20
46754;DHT22;32500;50.620;3.400;2024-02-23T01:00:45;15.70;70.10
46754;DHT22;32500;50.620;3.400;2024-02-23T01:03:11;15.70;70.10
46754;DHT22;32500;50.620;3.400;2024-02-23T01:05:37;15.70;70.10
46754;DHT22;32500;50.620;3.400;2024-02-23T01:08:04;15.70;70.20
46754;DHT22;32500;50.620;3.400;2024-02-23T01:10:29;15.70;70.20
46754;DHT22;32500;50.620;3.400;2024-02-23T01:12:55;15.60;70.20
46754;DHT22;32500;50.620;3.400;2024-02-23T01:15:21;15.60;70.20
46754;DHT22;32500;50.620;3.400;2024-02-23T01:17:46;15.70;70.00
46754;DHT22;32500;50.620;3.400;2024-02-23T01:20:13;15.70;70.10
46754;DHT22;32500;50.620;3.400;2024-02-23T01:22:38;15.60;70.20
46754;DHT22;32500;50.620;3.400;2024-02-23T01:25:05;15.60;69.90
46754;DHT22;32500;50.620;3.400;2024-02-23T01:27:30;15.70;70.20
46754;DHT22;32500;50.620;3.400;2024-02-23T01:29:56;15.60;70.10
46754;DHT22;32500;50.620;3.400;2024-02-23T01:32:22;15.60;70.20
46754;DHT22;32500;50.620;3.400;2024-02-23T01:34:48;15.60;70.00
46754;DHT22;32500;50.620;3.400;2024-02-23T01:37:13;15.60;70.00
46754;DHT22;32500;50.620;3.400;2024-02-23T01:39:40;15.60;70.30
46754;DHT22;32500;50.620;3.400;2024-02-23T01:42:05;15.50;70.20
46754;DHT22;32500;50.620;3.400;2024-02-23T01:44:31;15.50;70.10
46754;DHT22;32500;50.620;3.400;2024-02-23T01:46:57;15.50;70.30
46754;DHT22;32500;50.620;3.400;2024-02-23T01:49:23;15.50;70.30
46754;DHT22;32500;50.620;3.400;2024-02-23T01:51:57;15.50;70.30
46754;DHT22;32500;50.620;3.400;2024-02-23T01:54:24;15.50;70.00
46754;DHT22;32500;50.620;3.400;2024-02-23T01:56:51;15.50;70.20
46754;DHT22;32500;50.620;3.400;2024-02-23T01:59:18;15.50;70.20
46754;DHT22;32500;50.620;3.400;2024-02-23T02:01:45;15.50;70.20
46754;DHT22;32500;50.620;3.400;2024-02-23T02:04:10;15.40;70.20
46754;DHT22;32500;50.620;3.400;2024-02-23T02:06:36;15.40;70.20
46754;DHT22;32500;50.620;3.400;2024-02-23T02:09:02;15.40;70.20
46754;DHT22;32500;50.620;3.400;2024-02-23T02:11:28;15.40;70.20
46754;DHT22;32500;50.620;3.400;2024-02-23T02:13:54;15.40;70.20
46754;DHT22;32500;50.620;3.400;2024-02-23T02:16:19;15.40;70.30
46754;DHT22;32500;50.620;3.400;2024-02-23T02:18:45;15.40;70.30
46754;DHT22;32500;50.620;3.400;2024-02-23T02:21:11;15.40;70.30
46754;DHT22;32500;50.620;3.400;2024-02-23T02:23:37;15.40;70.20
46754;DHT22;32500;50.620;3.400;2024-02-23T02:26:03;15.30;70.30
46754;DHT22;32500;50.620;3.400;2024-02-23T02:28:29;15.30;70.20
46754;DHT22;32500;50.620;3.400;2024-02-23T02:30:55;15.30;70.50
46754;DHT22;32500;50.620;3.400;2024-02-23T02:33:22;15.30;70.20
46754;DHT22;32500;50.620;3.400;2024-02-23T02:35:48;15.30;70.20
46754;DHT22;32500;50.620;3.400;2024-02-23T02:38:15;15.30;70.20
46754;DHT22;32500;50.620;3.400;2024-02-23T02:40:41;15.30;70.30
46754;DHT22;32500;50.620;3.400;2024-02-23T02:43:07;15.30;70.30
46754;DHT22;32500;50.620;3.400;2024-02-23T02:45:33;15.30;70.20
46754;DHT22;32500;50.620;3.400;2024-02-23T02:48:03;15.30;70.10
46754;DHT22;32500;50.620;3.400;2024-02-23T02:50:29;15.20;70.30
46754;DHT22;32500;50.620;3.400;2024-02-23T02:52:54;15.20;70.30
46754;DHT22;32500;50.620;3.400;2024-02-23T02:55:20;15.20;70.30
46754;DHT22;32500;50.620;3.400;2024-02-23T02:57:46;15.20;70.30
46754;DHT22;32500;50.620;3.400;2024-02-23T03:00:12;15.20;70.30
46754;DHT22;32500;50.620;3.400;2024-02-23T03:02:38;15.20;70.90
46754;DHT22;32500;50.620;3.400;2024-02-23T03:05:03;15.20;70.20
46754;DHT22;32500;50.620;3.400;2024-02-23T03:07:29;15.20;70.20
46754;DHT22;32500;50.620;3.400;2024-02-23T03:09:55;15.20;70.30
46754;DHT22;32500;50.620;3.400;2024-02-23T03:12:21;15.20;70.20
46754;DHT22;32500;50.620;3.400;2024-02-23T03:14:46;15.20;70.20
46754;DHT22;32500;50.620;3.400;2024-02-23T03:17:12;15.20;70.10
46754;DHT22;32500;50.620;3.400;2024-02-23T03:19:38;15.20;70.10
46754;DHT22;32500;50.620;3.400;2024-02-23T03:22:04;15.20;70.00
46754;DHT22;32500;50.620;3.400;2024-02-23T03:24:30;15.20;70.10
46754;DHT22;32500;50.620;3.400;2024-02-23T03:26:56;15.20;70.10
46754;DHT22;32500;50.620;3.400;2024-02-23T03:29:22;15.10;70.10
46754;DHT22;32500;50.620;3.400;2024-02-23T03:31:57;15.20;70.10
46754;DHT22;32500;50.620;3.400;2024-02-23T03:34:23;15.10;70.00
46754;DHT22;32500;50.620;3.400;2024-02-23T03:36:49;15.10;69.90
46754;DHT22;32500;50.620;3.400;2024-02-23T03:39:14;15.10;69.90
46754;DHT22;32500;50.620;3.400;2024-02-23T03:41:40;15.10;70.00
46754;DHT22;32500;50.620;3.400;2024-02-23T03:44:06;15.10;70.00
46754;DHT22;32500;50.620;3.400;2024-02-23T03:46:31;15.10;69.80
46754;DHT22;32500;50.620;3.400;2024-02-23T03:48:57;15.10;70.00
46754;DHT22;32500;50.620;3.400;2024-02-23T03:51:23;15.10;69.90
46754;DHT22;32500;50.620;3.400;2024-02-23T03:53:49;15.10;70.00
46754;DHT22;32500;50.620;3.400;2024-02-23T03:56:16;15.10;69.90
46754;DHT22;32500;50.620;3.400;2024-02-23T03:58:41;15.10;70.00
46754;DHT22;32500;50.620;3.400;2024-02-23T04:01:07;15.10;70.00
46754;DHT22;32500;50.620;3.400;2024-02-23T04:03:33;15.10;70.60
46754;DHT22;32500;50.620;3.400;2024-02-23T04:05:58;15.10;69.90
46754;DHT22;32500;50.620;3.400;2024-02-23T04:08:24;15.10;70.00
46754;DHT22;32500;50.620;3.400;2024-02-23T04:10:50;15.10;69.90
46754;DHT22;32500;50.620;3.400;2024-02-23T04:13:15;15.10;69.90
46754;DHT22;32500;50.620;3.400;2024-02-23T04:15:43;15.00;69.80
46754;DHT22;32500;50.620;3.400;2024-02-23T04:18:09;15.00;69.80
46754;DHT22;32500;50.620;3.400;2024-02-23T04:20:34;15.00;69.70
46754;DHT22;32500;50.620;3.400;2024-02-23T04:23:00;15.00;69.90
46754;DHT22;32500;50.620;3.400;2024-02-23T04:25:26;15.00;69.90
46754;DHT22;32500;50.620;3.400;2024-02-23T04:27:51;15.00;69.90
46754;DHT22;32500;50.620;3.400;2024-02-23T04:30:17;15.00;69.70
46754;DHT22;32500;50.620;3.400;2024-02-23T04:32:43;15.00;69.90
46754;DHT22;32500;50.620;3.400;2024-02-23T04:35:09;14.90;69.80
46754;DHT22;32500;50.620;3.400;2024-02-23T04:37:35;15.00;69.90
46754;DHT22;32500;50.620;3.400;2024-02-23T04:40:01;14.90;69.90
46754;DHT22;32500;50.620;3.400;2024-02-23T04:42:27;14.90;69.90
46754;DHT22;32500;50.620;3.400;2024-02-23T04:44:53;14.90;70.00
46754;DHT22;32500;50.620;3.400;2024-02-23T04:47:20;14.90;70.10
46754;DHT22;32500;50.620;3.400;2024-02-23T04:49:46;14.90;70.10
46754;DHT22;32500;50.620;3.400;2024-02-23T04:52:12;14.80;70.00
46754;DHT22;32500;50.620;3.400;2024-02-23T04:54:37;14.80;70.20
46754;DHT22;32500;50.620;3.400;2024-02-23T04:57:03;14.80;70.00
46754;DHT22;32500;50.620;3.400;2024-02-23T04:59:29;14.80;70.20
46754;DHT22;32500;50.620;3.400;2024-02-23T05:01:57;14.80;70.30
46754;DHT22;32500;50.620;3.400;2024-02-23T05:04:23;14.70;70.20
46754;DHT22;32500;50.620;3.400;2024-02-23T05:06:49;14.70;70.20
46754;DHT22;32500;50.620;3.400;2024-02-23T05:09:14;14.80;70.10
46754;DHT22;32500;50.620;3.400;2024-02-23T05:11:40;14.70;70.10
46754;DHT22;32500;50.620;3.400;2024-02-23T05:14:06;14.80;70.30
46754;DHT22;32500;50.620;3.400;2024-02-23T05:16:31;14.70;70.20
46754;DHT22;32500;50.620;3.400;2024-02-23T05:18:57;14.70;70.20
46754;DHT22;32500;50.620;3.400;2024-02-23T05:21:23;14.70;70.10
46754;DHT22;32500;50.620;3.400;2024-02-23T05:23:49;14.70;70.20
46754;DHT22;32500;50.620;3.400;2024-02-23T05:26:15;14.70;70.40
46754;DHT22;32500;50.620;3.400;2024-02-23T05:28:40;14.70;70.10
46754;DHT22;32500;50.620;3.400;2024-02-23T05:31:07;14.70;70.10
46754;DHT22;32500;50.620;3.400;2024-02-23T05:33:32;14.70;70.10
46754;DHT22;32500;50.620;3.400;2024-02-23T05:35:58;14.70;70.10
46754;DHT22;32500;50.620;3.400;2024-02-23T05:38:23;14.60;70.10
46754;DHT22;32500;50.620;3.400;2024-02-23T05:40:49;14.70;70.70
46754;DHT22;32500;50.620;3.400;2024-02-23T05:43:15;14.70;70.30
46754;DHT22;32500;50.620;3.400;2024-02-23T05:45:40;14.70;70.00
46754;DHT22;32500;50.620;3.400;2024-02-23T05:48:06;14.70;70.20
46754;DHT22;32500;50.620;3.400;2024-02-23T05:50:32;14.60;70.00
46754;DHT22;32500;50.620;3.400;2024-02-23T05:52:58;14.60;69.90
46754;DHT22;32500;50.620;3.400;2024-02-23T05:55:24;14.70;69.90
46754;DHT22;32500;50.620;3.400;2024-02-23T05:57:49;14.60;70.00
46754;DHT22;32500;50.620;3.400;2024-02-23T06:00:17;14.60;70.00
46754;DHT22;32500;50.620;3.400;2024-02-23T06:02:45;14.60;70.10
46754;DHT22;32500;50.620;3.400;2024-02-23T06:05:12;14.60;70.00
46754;DHT22;32500;50.620;3.400;2024-02-23T06:07:37;14.60;70.00
46754;DHT22;32500;50.620;3.400;2024-02-23T06:10:03;14.60;69.90
46754;DHT22;32500;50.620;3.400;2024-02-23T06:12:30;14.60;70.70
46754;DHT22;32500;50.620;3.400;2024-02-23T06:14:56;14.60;70.10
46754;DHT22;32500;50.620;3.400;2024-02-23T06:17:23;14.60;70.40
46754;DHT22;32500;50.620;3.400;2024-02-23T06:19:49;14.60;70.50
46754;DHT22;32500;50.620;3.400;2024-02-23T06:22:15;14.60;70.70
46754;DHT22;32500;50.620;3.400;2024-02-23T06:24:46;14.60;70.50
46754;DHT22;32500;50.620;3.400;2024-02-23T06:27:12;14.60;70.60
46754;DHT22;32500;50.620;3.400;2024-02-23T06:29:38;14.60;70.70
46754;DHT22;32500;50.620;3.400;2024-02-23T06:32:03;14.60;70.70
46754;DHT22;32500;50.620;3.400;2024-02-23T06:34:29;14.60;70.60
46754;DHT22;32500;50.620;3.400;2024-02-23T06:36:55;14.60;70.50
46754;DHT22;32500;50.620;3.400;2024-02-23T06:39:21;14.60;70.70
46754;DHT22;32500;50.620;3.400;2024-02-23T06:41:47;14.60;70.70
46754;DHT22;32500;50.620;3.400;2024-02-23T06:44:12;14.60;70.80
46754;DHT22;32500;50.620;3.400;2024-02-23T06:46:38;14.60;71.00
46754;DHT22;32500;50.620;3.400;2024-02-23T06:49:04;14.60;71.00
46754;DHT22;32500;50.620;3.400;2024-02-23T06:51:31;14.60;71.10
46754;DHT22;32500;50.620;3.400;2024-02-23T06:53:57;14.60;71.30
46754;DHT22;32500;50.620;3.400;2024-02-23T06:56:23;14.60;71.50
46754;DHT22;32500;50.620;3.400;2024-02-23T06:58:48;14.60;71.70
46754;DHT22;32500;50.620;3.400;2024-02-23T07:01:14;14.60;71.60
46754;DHT22;32500;50.620;3.400;2024-02-23T07:03:40;14.60;72.10
46754;DHT22;32500;50.620;3.400;2024-02-23T07:06:08;14.60;72.30
46754;DHT22;32500;50.620;3.400;2024-02-23T07:08:35;14.60;72.50
46754;DHT22;32500;50.620;3.400;2024-02-23T07:11:01;14.60;72.70
46754;DHT22;32500;50.620;3.400;2024-02-23T07:13:27;14.60;72.70
46754;DHT22;32500;50.620;3.400;2024-02-23T07:15:53;14.60;72.60
46754;DHT22;32500;50.620;3.400;2024-02-23T07:18:18;14.60;72.50
46754;DHT22;32500;50.620;3.400;2024-02-23T07:20:44;14.60;72.60
46754;DHT22;32500;50.620;3.400;2024-02-23T07:23:10;14.60;72.80
46754;DHT22;32500;50.620;3.400;2024-02-23T07:25:35;14.50;72.60
46754;DHT22;32500;50.620;3.400;2024-02-23T07:28:01;14.50;72.80
46754;DHT22;32500;50.620;3.400;2024-02-23T07:30:27;14.60;72.70
46754;DHT22;32500;50.620;3.400;2024-02-23T07:32:52;14.50;72.60
46754;DHT22;32500;50.620;3.400;2024-02-23T07:35:18;14.50;72.30
46754;DHT22;32500;50.620;3.400;2024-02-23T07:37:43;14.50;72.30
46754;DHT22;32500;50.620;3.400;2024-02-23T07:40:09;14.50;72.40
46754;DHT22;32500;50.620;3.400;2024-02-23T07:42:35;14.50;72.60
46754;DHT22;32500;50.620;3.400;2024-02-23T07:45:03;14.50;72.30
46754;DHT22;32500;50.620;3.400;2024-02-23T07:47:30;14.50;72.30
46754;DHT22;32500;50.620;3.400;2024-02-23T07:49:56;14.50;72.00
46754;DHT22;32500;50.620;3.400;2024-02-23T07:52:21;14.50;71.80
46754;DHT22;32500;50.620;3.400;2024-02-23T07:54:50;14.50;71.80
46754;DHT22;32500;50.620;3.400;2024-02-23T07:57:17;14.50;71.60
46754;DHT22;32500;50.620;3.400;2024-02-23T07:59:43;14.50;71.90
46754;DHT22;32500;50.620;3.400;2024-02-23T08:02:09;14.50;72.60
46754;DHT22;32500;50.620;3.400;2024-02-23T08:04:35;14.50;72.60
46754;DHT22;32500;50.620;3.400;2024-02-23T08:07:01;14.50;71.70
46754;DHT22;32500;50.620;3.400;2024-02-23T08:09:27;14.50;72.00
46754;DHT22;32500;50.620;3.400;2024-02-23T08:11:52;14.60;71.60
46754;DHT22;32500;50.620;3.400;2024-02-23T08:14:18;14.60;71.40
46754;DHT22;32500;50.620;3.400;2024-02-23T08:16:44;14.60;71.30
46754;DHT22;32500;50.620;3.400;2024-02-23T08:19:09;14.60;71.40
46754;DHT22;32500;50.620;3.400;2024-02-23T08:21:35;14.70;71.30
46754;DHT22;32500;50.620;3.400;2024-02-23T08:24:01;14.70;71.30
46754;DHT22;32500;50.620;3.400;2024-02-23T08:26:28;14.70;71.10
46754;DHT22;32500;50.620;3.400;2024-02-23T08:28:54;14.70;71.10
46754;DHT22;32500;50.620;3.400;2024-02-23T08:31:19;14.70;71.30
46754;DHT22;32500;50.620;3.400;2024-02-23T08:33:45;14.70;71.40
46754;DHT22;32500;50.620;3.400;2024-02-23T08:36:12;14.70;71.40
46754;DHT22;32500;50.620;3.400;2024-02-23T08:38:37;14.70;71.60
46754;DHT22;32500;50.620;3.400;2024-02-23T08:41:03;14.70;71.50
46754;DHT22;32500;50.620;3.400;2024-02-23T08:43:29;14.70;71.50
46754;DHT22;32500;50.620;3.400;2024-02-23T08:45:55;14.70;71.90
46754;DHT22;32500;50.620;3.400;2024-02-23T08:48:20;14.80;72.10
46754;DHT22;32500;50.620;3.400;2024-02-23T08:50:46;14.80;72.00
46754;DHT22;32500;50.620;3.400;2024-02-23T08:53:11;14.80;71.80
46754;DHT22;32500;50.620;3.400;2024-02-23T08:55:37;14.80;71.90
46754;DHT22;32500;50.620;3.400;2024-02-23T08:58:03;14.80;71.70
46754;DHT22;32500;50.620;3.400;2024-02-23T09:00:31;14.80;71.90
46754;DHT22;32500;50.620;3.400;2024-02-23T09:02:56;14.80;72.30
46754;DHT22;32500;50.620;3.400;2024-02-23T09:05:22;14.80;72.50
46754;DHT22;32500;50.620;3.400;2024-02-23T09:07:48;14.80;72.70
46754;DHT22;32500;50.620;3.400;2024-02-23T09:10:14;14.90;72.80
46754;DHT22;32500;50.620;3.400;2024-02-23T09:12:39;14.90;73.00
46754;DHT22;32500;50.620;3.400;2024-02-23T09:15:05;14.90;72.70
46754;DHT22;32500;50.620;3.400;2024-02-23T09:17:31;14.90;73.10
46754;DHT22;32500;50.620;3.400;2024-02-23T09:19:57;14.90;73.10
46754;DHT22;32500;50.620;3.400;2024-02-23T09:22:22;14.90;72.80
46754;DHT22;32500;50.620;3.400;2024-02-23T09:24:49;14.90;72.70
46754;DHT22;32500;50.620;3.400;2024-02-23T09:27:14;14.90;72.70
46754;DHT22;32500;50.620;3.400;2024-02-23T09:29:42;15.00;72.60
46754;DHT22;32500;50.620;3.400;2024-02-23T09:32:08;15.00;72.80
46754;DHT22;32500;50.620;3.400;2024-02-23T09:34:34;15.10;72.90
46754;DHT22;32500;50.620;3.400;2024-02-23T09:37:00;15.10;68.90
46754;DHT22;32500;50.620;3.400;2024-02-23T09:39:25;15.10;70.90
46754;DHT22;32500;50.620;3.400;2024-02-23T09:41:55;15.10;70.50
46754;DHT22;32500;50.620;3.400;2024-02-23T09:44:22;15.20;70.50
46754;DHT22;32500;50.620;3.400;2024-02-23T09:46:48;15.20;70.30
46754;DHT22;32500;50.620;3.400;2024-02-23T09:49:17;15.20;69.80
46754;DHT22;32500;50.620;3.400;2024-02-23T09:51:43;15.20;69.20
46754;DHT22;32500;50.620;3.400;2024-02-23T09:54:09;15.20;69.00
46754;DHT22;32500;50.620;3.400;2024-02-23T09:56:35;15.30;69.00
46754;DHT22;32500;50.620;3.400;2024-02-23T09:59:03;15.20;69.00
46754;DHT22;32500;50.620;3.400;2024-02-23T10:01:31;15.30;68.90
46754;DHT22;32500;50.620;3.400;2024-02-23T10:03:59;15.20;68.40
46754;DHT22;32500;50.620;3.400;2024-02-23T10:06:26;15.30;68.50
46754;DHT22;32500;50.620;3.400;2024-02-23T10:08:52;15.30;68.40
46754;DHT22;32500;50.620;3.400;2024-02-23T10:11:23;15.20;66.40
46754;DHT22;32500;50.620;3.400;2024-02-23T10:13:49;15.20;65.30
46754;DHT22;32500;50.620;3.400;2024-02-23T10:16:16;15.20;67.30
46754;DHT22;32500;50.620;3.400;2024-02-23T10:18:42;15.20;67.80
46754;DHT22;32500;50.620;3.400;2024-02-23T10:21:08;15.20;69.20
46754;DHT22;32500;50.620;3.400;2024-02-23T10:23:33;15.30;70.60
46754;DHT22;32500;50.620;3.400;2024-02-23T10:25:59;15.40;71.30
46754;DHT22;32500;50.620;3.400;2024-02-23T10:28:25;15.50;72.10
46754;DHT22;32500;50.620;3.400;2024-02-23T10:30:50;15.50;71.70
46754;DHT22;32500;50.620;3.400;2024-02-23T10:33:19;15.50;71.40
46754;DHT22;32500;50.620;3.400;2024-02-23T10:35:48;15.50;69.30
46754;DHT22;32500;50.620;3.400;2024-02-23T10:38:18;15.50;69.10
46754;DHT22;32500;50.620;3.400;2024-02-23T10:40:45;15.60;69.40
46754;DHT22;32500;50.620;3.400;2024-02-23T10:43:19;15.60;69.90
46754;DHT22;32500;50.620;3.400;2024-02-23T10:45:46;15.60;70.30
46754;DHT22;32500;50.620;3.400;2024-02-23T10:48:12;15.50;71.10
46754;DHT22;32500;50.620;3.400;2024-02-23T10:50:41;15.50;70.90
46754;DHT22;32500;50.620;3.400;2024-02-23T10:53:10;15.50;70.20
46754;DHT22;32500;50.620;3.400;2024-02-23T10:55:37;15.50;70.40
46754;DHT22;32500;50.620;3.400;2024-02-23T10:58:06;15.40;70.20
46754;DHT22;32500;50.620;3.400;2024-02-23T11:00:37;15.50;69.80
46754;DHT22;32500;50.620;3.400;2024-02-23T11:03:03;15.50;70.20
46754;DHT22;32500;50.620;3.400;2024-02-23T11:05:31;15.50;70.10
46754;DHT22;32500;50.620;3.400;2024-02-23T11:07:56;15.50;70.00
46754;DHT22;32500;50.620;3.400;2024-02-23T11:10:22;15.40;69.80
46754;DHT22;32500;50.620;3.400;2024-02-23T11:12:59;15.40;70.00
46754;DHT22;32500;50.620;3.400;2024-02-23T11:15:27;15.40;69.90
46754;DHT22;32500;50.620;3.400;2024-02-23T11:17:53;15.40;69.90
46754;DHT22;32500;50.620;3.400;2024-02-23T11:20:20;15.40;69.90
46754;DHT22;32500;50.620;3.400;2024-02-23T11:22:52;15.30;70.00
46754;DHT22;32500;50.620;3.400;2024-02-23T11:25:26;15.30;70.20
46754;DHT22;32500;50.620;3.400;2024-02-23T11:27:52;15.40;69.70
46754;DHT22;32500;50.620;3.400;2024-02-23T11:30:18;15.40;69.70
46754;DHT22;32500;50.620;3.400;2024-02-23T11:32:49;15.40;69.60
46754;DHT22;32500;50.620;3.400;2024-02-23T11:35:19;15.40;69.40
46754;DHT22;32500;50.620;3.400;2024-02-23T11:40:15;15.40;69.00
46754;DHT22;32500;50.620;3.400;2024-02-23T11:42:42;15.40;68.90
46754;DHT22;32500;50.620;3.400;2024-02-23T11:45:11;15.40;69.10
46754;DHT22;32500;50.620;3.400;2024-02-23T11:47:37;15.40;69.10
46754;DHT22;32500;50.620;3.400;2024-02-23T11:50:06;15.40;69.00
46754;DHT22;32500;50.620;3.400;2024-02-23T11:52:32;15.40;69.10
46754;DHT22;32500;50.620;3.400;2024-02-23T11:54:59;15.30;69.10
46754;DHT22;32500;50.620;3.400;2024-02-23T11:57:24;15.30;69.30
46754;DHT22;32500;50.620;3.400;2024-02-23T11:59:51;15.30;69.70
46754;DHT22;32500;50.620;3.400;2024-02-23T12:02:17;15.40;70.10
46754;DHT22;32500;50.620;3.400;2024-02-23T12:04:43;15.30;70.40
46754;DHT22;32500;50.620;3.400;2024-02-23T12:07:09;15.30;70.70
46754;DHT22;32500;50.620;3.400;2024-02-23T12:09:35;15.40;77.30
46754;DHT22;32500;50.620;3.400;2024-02-23T12:12:01;15.40;74.30
46754;DHT22;32500;50.620;3.400;2024-02-23T12:14:27;15.40;75.00
46754;DHT22;32500;50.620;3.400;2024-02-23T12:16:53;15.40;75.90
46754;DHT22;32500;50.620;3.400;2024-02-23T12:19:19;15.40;76.70
46754;DHT22;32500;50.620;3.400;2024-02-23T12:21:47;15.30;76.50
46754;DHT22;32500;50.620;3.400;2024-02-23T12:24:13;15.30;77.50
46754;DHT22;32500;50.620;3.400;2024-02-23T12:26:39;15.30;78.20
46754;DHT22;32500;50.620;3.400;2024-02-23T12:29:05;15.30;79.00
46754;DHT22;32500;50.620;3.400;2024-02-23T12:31:34;15.30;79.70
46754;DHT22;32500;50.620;3.400;2024-02-23T12:34:00;15.40;80.10
46754;DHT22;32500;50.620;3.400;2024-02-23T12:36:26;15.30;79.10
46754;DHT22;32500;50.620;3.400;2024-02-23T12:38:51;15.30;78.90
46754;DHT22;32500;50.620;3.400;2024-02-23T12:41:17;15.30;78.20
46754;DHT22;32500;50.620;3.400;2024-02-23T12:43:43;15.40;77.60
46754;DHT22;32500;50.620;3.400;2024-02-23T12:46:08;15.40;77.40
46754;DHT22;32500;50.620;3.400;2024-02-23T12:48:37;15.40;77.00
46754;DHT22;32500;50.620;3.400;2024-02-23T12:51:03;15.40;74.70
46754;DHT22;32500;50.620;3.400;2024-02-23T12:53:37;15.40;76.20
46754;DHT22;32500;50.620;3.400;2024-02-23T12:56:13;15.40;75.40
46754;DHT22;32500;50.620;3.400;2024-02-23T12:58:41;15.40;75.10
46754;DHT22;32500;50.620;3.400;2024-02-23T13:01:07;15.40;75.20
46754;DHT22;32500;50.620;3.400;2024-02-23T13:03:34;15.40;75.10
46754;DHT22;32500;50.620;3.400;2024-02-23T13:06:01;15.40;75.00
46754;DHT22;32500;50.620;3.400;2024-02-23T13:08:27;15.40;75.10
46754;DHT22;32500;50.620;3.400;2024-02-23T13:10:53;15.40;75.20
46754;DHT22;32500;50.620;3.400;2024-02-23T13:13:20;15.50;75.40
46754;DHT22;32500;50.620;3.400;2024-02-23T13:15:47;15.50;75.80
46754;DHT22;32500;50.620;3.400;2024-02-23T13:18:13;15.60;76.30
46754;DHT22;32500;50.620;3.400;2024-02-23T13:20:39;15.60;75.90
46754;DHT22;32500;50.620;3.400;2024-02-23T13:23:07;15.60;76.30
46754;DHT22;32500;50.620;3.400;2024-02-23T13:25:34;15.60;76.20
46754;DHT22;32500;50.620;3.400;2024-02-23T13:28:00;15.70;75.30
46754;DHT22;32500;50.620;3.400;2024-02-23T13:30:26;15.70;75.10
46754;DHT22;32500;50.620;3.400;2024-02-23T13:32:52;15.70;75.30
46754;DHT22;32500;50.620;3.400;2024-02-23T13:35:18;15.70;75.30
46754;DHT22;32500;50.620;3.400;2024-02-23T13:37:44;15.70;75.00
46754;DHT22;32500;50.620;3.400;2024-02-23T13:40:10;15.80;75.30
46754;DHT22;32500;50.620;3.400;2024-02-23T13:42:37;15.80;74.70
46754;DHT22;32500;50.620;3.400;2024-02-23T13:45:08;15.80;74.50
46754;DHT22;32500;50.620;3.400;2024-02-23T13:47:35;15.80;74.50
46754;DHT22;32500;50.620;3.400;2024-02-23T13:50:02;15.90;74.60
46754;DHT22;32500;50.620;3.400;2024-02-23T13:52:28;15.90;74.30
46754;DHT22;32500;50.620;3.400;2024-02-23T13:54:54;15.90;74.30
46754;DHT22;32500;50.620;3.400;2024-02-23T13:57:19;16.00;74.30
46754;DHT22;32500;50.620;3.400;2024-02-23T13:59:45;16.00;74.00
46754;DHT22;32500;50.620;3.400;2024-02-23T14:02:11;16.10;74.10
46754;DHT22;32500;50.620;3.400;2024-02-23T14:04:37;16.10;73.70
46754;DHT22;32500;50.620;3.400;2024-02-23T14:07:03;16.10;73.40
46754;DHT22;32500;50.620;3.400;2024-02-23T14:09:30;16.10;73.10
46754;DHT22;32500;50.620;3.400;2024-02-23T14:11:56;16.10;73.10
46754;DHT22;32500;50.620;3.400;2024-02-23T14:14:22;16.20;73.40
46754;DHT22;32500;50.620;3.400;2024-02-23T14:16:49;16.20;73.00
46754;DHT22;32500;50.620;3.400;2024-02-23T14:19:14;16.20;73.00
46754;DHT22;32500;50.620;3.400;2024-02-23T14:21:40;16.30;73.30
46754;DHT22;32500;50.620;3.400;2024-02-23T14:24:06;16.30;72.90
46754;DHT22;32500;50.620;3.400;2024-02-23T14:26:32;16.30;73.00
46754;DHT22;32500;50.620;3.400;2024-02-23T14:28:58;16.30;73.10
46754;DHT22;32500;50.620;3.400;2024-02-23T14:31:24;16.30;73.50
46754;DHT22;32500;50.620;3.400;2024-02-23T14:33:51;16.30;73.20
46754;DHT22;32500;50.620;3.400;2024-02-23T14:36:17;16.30;73.50
46754;DHT22;32500;50.620;3.400;2024-02-23T14:38:43;16.30;73.30
46754;DHT22;32500;50.620;3.400;2024-02-23T14:41:09;16.30;73.10
46754;DHT22;32500;50.620;3.400;2024-02-23T14:43:36;16.30;73.20
46754;DHT22;32500;50.620;3.400;2024-02-23T14:46:02;16.30;74.30
46754;DHT22;32500;50.620;3.400;2024-02-23T14:48:28;16.30;72.80
46754;DHT22;32500;50.620;3.400;2024-02-23T14:50:53;16.20;71.80
46754;DHT22;32500;50.620;3.400;2024-02-23T14:53:19;16.20;72.10
46754;DHT22;32500;50.620;3.400;2024-02-23T14:55:45;16.10;71.30
46754;DHT22;32500;50.620;3.400;2024-02-23T14:58:12;16.10;71.00
46754;DHT22;32500;50.620;3.400;2024-02-23T15:00:37;16.20;70.50
46754;DHT22;32500;50.620;3.400;2024-02-23T15:03:04;16.30;70.20
46754;DHT22;32500;50.620;3.400;2024-02-23T15:05:30;16.30;69.80
46754;DHT22;32500;50.620;3.400;2024-02-23T15:07:56;16.40;69.60
46754;DHT22;32500;50.620;3.400;2024-02-23T15:10:21;16.50;69.30
46754;DHT22;32500;50.620;3.400;2024-02-23T15:12:47;16.50;69.00
46754;DHT22;32500;50.620;3.400;2024-02-23T15:15:13;16.60;68.70
46754;DHT22;32500;50.620;3.400;2024-02-23T15:17:39;16.60;68.80
46754;DHT22;32500;50.620;3.400;2024-02-23T15:20:08;16.70;69.80
46754;DHT22;32500;50.620;3.400;2024-02-23T15:22:34;16.70;71.40
46754;DHT22;32500;50.620;3.400;2024-02-23T15:24:59;16.70;72.60
46754;DHT22;32500;50.620;3.400;2024-02-23T15:27:25;16.80;74.20